Time;durP1;ratioP1;P1;durP2;ratioP2;P2;SDS_P1;SDS_P2;PMS_P1;PMS_P2;Temp;Humidity;BMP_temperature;BMP_pressure;BME280_temperature;BME280_humidity;BME280_pressure;Samples;Min_cycle;Max_cycle;Signal;HPM_P1;HPM_P2
2024/03/23 00:00:43;;;;;;;18.77;13.30;;;;;;;9.50;87.34;99571.31;4937680;28;20213;-61
2024/03/23 00:03:13;;;;;;;22.77;14.73;;;;;;;9.45;87.35;99573.09;4928674;28;20221;-61
2024/03/23 00:05:43;;;;;;;19.40;13.23;;;;;;;9.41;87.60;99576.59;4936484;29;20213;-63
2024/03/23 00:08:13;;;;;;;20.07;13.97;;;;;;;9.39;88.27;99562.91;4936803;28;20217;-61
2024/03/23 00:10:44;;;;;;;23.27;14.07;;;;;;;9.40;88.38;99565.44;4942466;28;20659;-62
2024/03/23 00:13:14;;;;;;;22.97;14.03;;;;;;;9.38;89.01;99569.75;4938555;29;20224;-60
2024/03/23 00:15:44;;;;;;;19.73;14.00;;;;;;;9.36;88.87;99566.38;4938175;29;20217;-63
2024/03/23 00:18:14;;;;;;;19.87;13.47;;;;;;;9.34;89.93;99564.69;4937754;29;20248;-61
2024/03/23 00:20:45;;;;;;;21.10;13.03;;;;;;;9.29;89.94;99540.78;4934399;28;20214;-64
2024/03/23 00:23:15;;;;;;;22.60;13.43;;;;;;;9.27;90.26;99561.34;4927490;29;20256;-61
2024/03/23 00:25:45;;;;;;;24.17;15.07;;;;;;;9.22;90.71;99559.72;4937700;28;20217;-62
2024/03/23 00:28:15;;;;;;;22.23;14.60;;;;;;;9.18;92.15;99553.78;4940413;29;20643;-62
2024/03/23 00:30:45;;;;;;;22.43;15.20;;;;;;;9.14;91.93;99552.97;4935807;28;20237;-62
2024/03/23 00:33:16;;;;;;;22.40;15.60;;;;;;;9.10;91.93;99548.75;4936600;29;20221;-62
2024/03/23 00:35:46;;;;;;;24.17;14.80;;;;;;;9.06;92.58;99544.53;4937443;28;20213;-61
2024/03/23 00:38:16;;;;;;;23.83;17.03;;;;;;;9.07;92.90;99537.66;4937225;29;20217;-61
2024/03/23 00:40:46;;;;;;;24.93;15.63;;;;;;;9.07;93.10;99545.34;4937396;28;20209;-62
2024/03/23 00:43:17;;;;;;;26.33;15.20;;;;;;;9.08;93.10;99541.91;4923592;29;20689;-57
2024/03/23 00:45:47;;;;;;;23.63;14.80;;;;;;;9.06;92.99;99531.66;4936548;29;20673;-58
2024/03/23 00:48:17;;;;;;;21.87;14.97;;;;;;;9.06;93.44;99534.25;4934761;28;20221;-57
2024/03/23 00:50:48;;;;;;;23.17;15.57;;;;;;;9.04;93.73;99525.69;4929420;29;20233;-57
2024/03/23 00:53:17;;;;;;;22.83;14.50;;;;;;;9.01;94.53;99515.44;4937480;29;20225;-57
2024/03/23 00:55:46;;;;;;;25.77;16.80;;;;;;;9.00;94.98;99518.88;4936523;29;20213;-59
2024/03/23 00:58:11;;;;;;;23.43;15.67;;;;;;;8.95;95.47;99515.53;4936711;29;20209;-58
2024/03/23 01:00:38;;;;;;;25.50;15.23;;;;;;;8.93;96.29;99509.56;4933795;29;20340;-57
2024/03/23 01:03:04;;;;;;;26.33;16.83;;;;;;;8.89;96.04;99500.19;4935862;29;20227;-58
2024/03/23 01:05:31;;;;;;;22.20;15.70;;;;;;;8.88;96.40;99494.22;4932795;29;20224;-57
2024/03/23 01:07:57;;;;;;;23.93;15.07;;;;;;;8.87;96.65;99502.81;4936252;29;20214;-61
2024/03/23 01:10:24;;;;;;;23.93;15.20;;;;;;;8.87;96.78;99496.78;4937149;29;20244;-62
2024/03/23 01:12:51;;;;;;;24.47;16.17;;;;;;;8.87;97.02;99499.34;4934458;29;20727;-58
2024/03/23 01:15:18;;;;;;;25.83;15.63;;;;;;;8.88;97.12;99506.22;4935783;29;20217;-56
2024/03/23 01:17:44;;;;;;;24.57;16.40;;;;;;;8.88;97.03;99496.78;4934624;28;20249;-58
2024/03/23 01:20:11;;;;;;;26.17;17.27;;;;;;;8.90;97.69;99491.63;4929829;29;20220;-58
2024/03/23 01:22:37;;;;;;;24.63;15.53;;;;;;;8.90;97.77;99491.63;4935984;29;20205;-57
2024/03/23 01:25:04;;;;;;;28.20;16.67;;;;;;;8.89;97.56;99487.34;4936326;29;20236;-57
2024/03/23 01:27:30;;;;;;;24.10;16.10;;;;;;;8.90;97.88;99486.47;4935927;29;20213;-59
2024/03/23 01:29:59;;;;;;;24.37;16.77;;;;;;;8.90;97.81;99489.03;4936525;29;20236;-57
2024/03/23 01:32:24;;;;;;;24.90;16.40;;;;;;;8.87;98.76;99484.81;4933826;28;20237;-57
2024/03/23 01:34:51;;;;;;;26.80;17.63;;;;;;;8.89;98.82;99487.34;4926761;28;20210;-58
2024/03/23 01:37:17;;;;;;;27.50;17.03;;;;;;;8.89;98.68;99487.34;4933719;29;20214;-56
2024/03/23 01:39:44;;;;;;;26.17;17.40;;;;;;;8.87;98.04;99486.50;4933763;29;20558;-62
2024/03/23 01:42:10;;;;;;;26.27;17.03;;;;;;;8.88;98.59;99488.25;4936075;28;20221;-58
2024/03/23 01:44:37;;;;;;;29.30;17.33;;;;;;;8.87;99.17;99487.38;4936115;29;20220;-58
2024/03/23 01:47:06;;;;;;;26.40;17.67;;;;;;;8.85;99.39;99486.53;4933261;29;20620;-58
2024/03/23 01:49:33;;;;;;;27.17;18.40;;;;;;;8.84;99.89;99473.75;4927111;29;20222;-59
2024/03/23 01:52:00;;;;;;;28.10;18.00;;;;;;;8.79;99.57;99465.22;4933721;29;20225;-57
2024/03/23 01:54:26;;;;;;;27.97;18.53;;;;;;;8.80;99.59;99470.34;4935681;29;20213;-57
2024/03/23 01:56:54;;;;;;;27.23;17.40;;;;;;;8.81;100.00;99469.47;4935174;28;20218;-57
2024/03/23 01:59:21;;;;;;;28.63;18.53;;;;;;;8.81;99.95;99459.22;4935435;29;20210;-57
2024/03/23 02:01:47;;;;;;;29.47;18.70;;;;;;;8.79;100.00;99472.94;4939100;29;20217;-57
2024/03/23 02:04:15;;;;;;;29.40;18.70;;;;;;;8.78;100.00;99463.53;4934736;28;20592;-57
2024/03/23 02:06:41;;;;;;;28.33;17.03;;;;;;;8.80;100.00;99464.34;4926414;29;20265;-59
2024/03/23 02:09:08;;;;;;;28.73;18.00;;;;;;;8.82;100.00;99454.91;4934898;29;20285;-57
2024/03/23 02:11:34;;;;;;;26.90;17.53;;;;;;;8.82;100.00;99454.91;4935777;29;20240;-56
2024/03/23 02:14:01;;;;;;;24.37;16.63;;;;;;;8.80;100.00;99460.09;4935167;29;20261;-56
2024/03/23 02:16:27;;;;;;;26.93;18.00;;;;;;;8.81;100.00;99458.38;4938048;29;20217;-58
2024/03/23 02:18:54;;;;;;;29.00;18.97;;;;;;;8.75;100.00;99450.72;4935237;28;20253;-59
2024/03/23 02:21:21;;;;;;;25.23;17.50;;;;;;;8.79;100.00;99455.78;4935530;28;20641;-59
2024/03/23 02:23:50;;;;;;;26.30;17.30;;;;;;;8.79;100.00;99452.38;4930321;28;20221;-59
2024/03/23 02:26:16;;;;;;;27.40;18.33;;;;;;;8.79;100.00;99452.38;4935166;28;20246;-60
2024/03/23 02:28:43;;;;;;;27.17;17.30;;;;;;;8.80;100.00;99454.06;4935689;28;20224;-67
2024/03/23 02:31:09;;;;;;;30.30;18.03;;;;;;;8.76;100.00;99448.13;4933134;29;20244;-60
2024/03/23 02:33:38;;;;;;;31.43;19.63;;;;;;;8.71;100.00;99443.06;4934841;28;20681;-61
2024/03/23 02:36:04;;;;;;;26.30;17.10;;;;;;;8.77;100.00;99451.56;4935078;29;20218;-61
2024/03/23 02:38:31;;;;;;;27.00;18.53;;;;;;;8.76;100.00;99443.00;4940887;29;20220;-58
2024/03/23 02:41:03;;;;;;;32.67;19.90;;;;;;;8.75;100.00;99445.59;4935088;29;20676;-59
2024/03/23 02:43:30;;;;;;;33.97;19.67;;;;;;;8.75;100.00;99437.88;4931982;28;20228;-59
2024/03/23 02:45:56;;;;;;;30.97;21.17;;;;;;;8.76;100.00;99442.16;4932186;29;20695;-60
2024/03/23 02:48:23;;;;;;;32.27;21.07;;;;;;;8.74;100.00;99433.63;4935193;29;20217;-60
2024/03/23 02:50:50;;;;;;;27.40;18.53;;;;;;;8.74;100.00;99434.47;4934901;29;20217;-60
2024/03/23 02:53:17;;;;;;;33.90;19.83;;;;;;;8.74;100.00;99425.94;4935046;29;20264;-58
2024/03/23 02:55:43;;;;;;;30.77;19.70;;;;;;;8.76;100.00;99427.56;4937402;29;20209;-60
2024/03/23 02:58:11;;;;;;;30.10;19.20;;;;;;;8.78;100.00;99425.84;4938667;29;20249;-60
2024/03/23 03:00:37;;;;;;;30.67;19.60;;;;;;;8.76;100.00;99416.47;4939172;28;20221;-60
2024/03/23 03:03:05;;;;;;;32.87;21.30;;;;;;;8.78;100.00;99423.28;4935999;29;20206;-60
2024/03/23 03:05:30;;;;;;;31.97;20.53;;;;;;;8.78;100.00;99425.84;4935051;29;20282;-56
2024/03/23 03:07:57;;;;;;;30.47;20.77;;;;;;;8.78;100.00;99412.16;4938414;29;21193;-59
2024/03/23 03:10:23;;;;;;;35.63;20.00;;;;;;;8.74;100.00;99411.34;4938923;29;20232;-59
2024/03/23 03:12:50;;;;;;;31.27;19.87;;;;;;;8.74;100.00;99406.22;4938299;28;20248;-59
2024/03/23 03:15:18;;;;;;;31.03;20.23;;;;;;;8.74;100.00;99410.50;4937722;29;20217;-60
2024/03/23 03:17:45;;;;;;;32.47;21.50;;;;;;;8.76;100.00;99411.31;4938339;29;20249;-59
2024/03/23 03:20:13;;;;;;;32.70;20.27;;;;;;;8.77;100.00;99405.34;4944407;29;20212;-59
2024/03/23 03:22:40;;;;;;;31.43;19.40;;;;;;;8.77;100.00;99403.63;4934360;29;20213;-61
2024/03/23 03:25:07;;;;;;;31.77;20.87;;;;;;;8.80;100.00;99405.25;4938121;29;20240;-60
2024/03/23 03:27:34;;;;;;;28.07;18.03;;;;;;;8.80;100.00;99402.69;4937569;29;20241;-58
2024/03/23 03:30:01;;;;;;;32.67;19.03;;;;;;;8.83;100.00;99408.63;4938216;29;20604;-58
2024/03/23 03:32:30;;;;;;;30.87;20.30;;;;;;;8.85;100.00;99417.19;4938074;29;20296;-59
2024/03/23 03:34:59;;;;;;;30.70;21.07;;;;;;;8.83;100.00;99418.91;4929173;28;20222;-60
2024/03/23 03:37:26;;;;;;;29.83;18.63;;;;;;;8.80;100.00;99413.84;4933672;29;20673;-60
2024/03/23 03:39:51;;;;;;;28.33;18.80;;;;;;;8.83;100.00;99410.38;4938320;28;20205;-59
2024/03/23 03:42:18;;;;;;;30.93;20.23;;;;;;;8.83;100.00;99418.06;4938003;29;20228;-59
2024/03/23 03:44:44;;;;;;;30.57;20.40;;;;;;;8.80;100.00;99419.00;4938445;29;20642;-59
2024/03/23 03:47:11;;;;;;;31.53;20.97;;;;;;;8.77;100.00;99413.03;4937959;28;20216;-59
2024/03/23 03:49:38;;;;;;;36.27;22.37;;;;;;;8.77;100.00;99413.03;4938138;29;20225;-59
2024/03/23 03:52:06;;;;;;;36.17;20.47;;;;;;;8.74;100.00;99402.81;4937277;29;20232;-59
2024/03/23 03:54:32;;;;;;;34.17;21.80;;;;;;;8.76;100.00;99403.63;4931592;29;20238;-59
2024/03/23 03:56:59;;;;;;;34.23;20.87;;;;;;;8.76;100.00;99409.59;4935943;29;20210;-61
2024/03/23 03:59:26;;;;;;;30.47;19.30;;;;;;;8.78;100.00;99404.47;4941999;28;20217;-59
2024/03/23 04:01:53;;;;;;;31.53;19.10;;;;;;;8.79;100.00;99401.00;4936554;29;20209;-60
2024/03/23 04:04:20;;;;;;;28.77;19.20;;;;;;;8.79;100.00;99401.00;4937843;28;20226;-60
2024/03/23 04:06:49;;;;;;;33.17;20.50;;;;;;;8.77;100.00;99393.34;4937163;29;20281;-62
2024/03/23 04:09:15;;;;;;;31.07;18.77;;;;;;;8.79;100.00;99393.31;4939295;28;20213;-60
2024/03/23 04:11:42;;;;;;;30.03;19.53;;;;;;;8.79;100.00;99401.00;4933750;29;20232;-60
2024/03/23 04:14:07;;;;;;;31.67;20.70;;;;;;;8.78;100.00;99394.19;4933892;29;20216;-60
2024/03/23 04:16:36;;;;;;;31.23;18.97;;;;;;;8.80;100.00;99395.00;4937842;29;20217;-61
2024/03/23 04:19:01;;;;;;;27.17;18.73;;;;;;;8.80;100.00;99387.28;4939941;29;20249;-60
2024/03/23 04:21:28;;;;;;;33.10;20.23;;;;;;;8.83;100.00;99390.66;4937621;28;20219;-59
2024/03/23 04:23:56;;;;;;;28.50;19.10;;;;;;;8.82;100.00;99383.00;4937912;29;20643;-59
2024/03/23 04:26:22;;;;;;;29.30;19.80;;;;;;;8.84;100.00;99378.69;4941666;28;20209;-59
2024/03/23 04:28:48;;;;;;;31.60;19.70;;;;;;;8.84;100.00;99378.69;4935092;29;20224;-61
2024/03/23 04:31:15;;;;;;;25.47;18.30;;;;;;;8.80;100.00;99375.31;4936094;28;20209;-60
2024/03/23 04:33:41;;;;;;;30.33;18.53;;;;;;;8.80;100.00;99366.75;4936843;29;20220;-65
2024/03/23 04:36:09;;;;;;;30.53;19.93;;;;;;;8.79;100.00;99365.03;4937848;29;20209;-61
2024/03/23 04:38:39;;;;;;;28.53;19.73;;;;;;;8.82;100.00;99362.44;4938054;29;20212;-61
2024/03/23 04:41:07;;;;;;;29.03;19.37;;;;;;;8.81;100.00;99364.16;4937044;29;20216;-62
2024/03/23 04:43:35;;;;;;;30.77;20.20;;;;;;;8.80;100.00;99365.03;4937176;29;20217;-62
2024/03/23 04:46:01;;;;;;;27.03;19.10;;;;;;;8.84;100.00;99368.41;4937763;29;20208;-61
2024/03/23 04:48:28;;;;;;;26.17;18.17;;;;;;;8.81;100.00;99353.03;4923812;28;20214;-59
2024/03/23 04:50:58;;;;;;;26.40;18.73;;;;;;;8.87;100.00;99363.19;4935300;29;20209;-61
2024/03/23 04:53:28;;;;;;;29.43;19.30;;;;;;;8.87;100.00;99351.22;4936267;28;20237;-62
2024/03/23 04:55:54;;;;;;;27.67;18.27;;;;;;;8.89;100.00;99348.63;4934083;29;20209;-63
2024/03/23 04:58:23;;;;;;;27.63;19.13;;;;;;;8.91;100.00;99339.16;4936861;29;20213;-60
2024/03/23 05:00:53;;;;;;;28.07;18.93;;;;;;;8.93;100.00;99322.00;4935925;28;20559;-62
2024/03/23 05:03:21;;;;;;;34.40;21.57;;;;;;;8.97;100.00;99341.63;4932925;28;20774;-58
2024/03/23 05:05:47;;;;;;;33.70;21.47;;;;;;;8.98;100.00;99340.75;4925452;28;20221;-62
2024/03/23 05:08:15;;;;;;;31.00;21.00;;;;;;;8.99;100.00;99336.50;4936554;29;20248;-62
2024/03/23 05:10:41;;;;;;;32.90;21.40;;;;;;;8.99;100.00;99341.63;4936497;29;20217;-62
2024/03/23 05:13:08;;;;;;;33.50;23.07;;;;;;;8.93;100.00;99328.00;4936100;29;20229;-61
2024/03/23 05:15:36;;;;;;;33.13;20.63;;;;;;;8.99;100.00;99350.19;4936370;29;20213;-62
2024/03/23 05:18:03;;;;;;;30.67;20.83;;;;;;;9.00;100.00;99353.59;4936201;29;20237;-62
2024/03/23 05:20:28;;;;;;;35.87;21.53;;;;;;;9.00;100.00;99346.72;4936597;29;20228;-62
2024/03/23 05:22:56;;;;;;;33.03;22.13;;;;;;;9.02;100.00;99349.25;4932077;29;20288;-60
2024/03/23 05:25:22;;;;;;;31.47;21.20;;;;;;;9.00;100.00;99341.59;4936999;29;20224;-60
2024/03/23 05:27:49;;;;;;;34.30;21.27;;;;;;;8.98;100.00;99340.75;4936205;29;20213;-61
2024/03/23 05:30:15;;;;;;;33.07;22.37;;;;;;;8.96;100.00;99337.38;4934645;29;20220;-62
2024/03/23 05:32:44;;;;;;;32.63;21.77;;;;;;;8.98;100.00;99340.75;4929883;29;20554;-60
2024/03/23 05:35:10;;;;;;;30.97;21.63;;;;;;;8.98;100.00;99342.47;4933769;29;20284;-63
2024/03/23 05:37:37;;;;;;;35.00;22.80;;;;;;;8.98;100.00;99334.78;4935954;29;20221;-62
2024/03/23 05:40:04;;;;;;;37.17;24.00;;;;;;;8.97;100.00;99338.22;4942505;28;20661;-63
2024/03/23 05:42:31;;;;;;;35.90;21.43;;;;;;;8.94;100.00;99329.69;4936149;29;20217;-63
2024/03/23 05:44:57;;;;;;;34.40;23.03;;;;;;;8.96;100.00;99334.81;4935757;28;20272;-62
2024/03/23 05:47:24;;;;;;;39.53;23.70;;;;;;;8.96;100.00;99327.09;4933816;29;20273;-63
2024/03/23 05:49:52;;;;;;;35.57;23.23;;;;;;;8.98;100.00;99333.03;4936158;29;20580;-58
2024/03/23 05:52:20;;;;;;;36.00;24.17;;;;;;;8.97;100.00;99330.53;4934939;29;20233;-59
2024/03/23 05:54:46;;;;;;;36.50;23.10;;;;;;;8.96;100.00;99321.97;4935816;29;20201;-57
2024/03/23 05:57:13;;;;;;;37.00;23.50;;;;;;;8.97;100.00;99323.66;4930334;29;20201;-58
2024/03/23 05:59:39;;;;;;;38.20;23.00;;;;;;;8.95;100.00;99326.25;4935644;29;20584;-57
2024/03/23 06:02:07;;;;;;;38.00;24.40;;;;;;;8.96;100.00;99327.09;4932806;29;20213;-58
2024/03/23 06:04:33;;;;;;;37.43;22.07;;;;;;;8.98;100.00;99315.06;4935429;29;20224;-60
2024/03/23 06:07:02;;;;;;;35.70;22.00;;;;;;;8.99;100.00;99309.06;4932629;28;20584;-57
2024/03/23 06:09:27;;;;;;;35.30;23.33;;;;;;;9.00;100.00;99313.31;4937883;28;20220;-60
2024/03/23 06:11:54;;;;;;;31.10;21.57;;;;;;;9.02;100.00;99306.47;4936869;28;20576;-57
2024/03/23 06:14:21;;;;;;;34.77;21.37;;;;;;;9.02;100.00;99311.59;4935134;28;20564;-57
2024/03/23 06:16:47;;;;;;;33.63;21.07;;;;;;;9.03;100.00;99309.88;4932142;29;20692;-59
2024/03/23 06:19:13;;;;;;;33.50;22.00;;;;;;;9.03;100.00;99323.56;4932580;29;20724;-59
2024/03/23 06:21:44;;;;;;;35.20;21.87;;;;;;;9.04;100.00;99314.13;4928260;28;20223;-59
2024/03/23 06:24:12;;;;;;;36.13;21.57;;;;;;;9.04;100.00;99302.13;4927806;29;20206;-57
2024/03/23 06:26:39;;;;;;;32.30;21.30;;;;;;;9.07;100.00;99309.78;4935545;29;20223;-59
2024/03/23 06:29:05;;;;;;;34.77;22.27;;;;;;;9.10;100.00;99307.16;4934595;29;20229;-58
2024/03/23 06:31:32;;;;;;;30.23;20.80;;;;;;;9.13;100.00;99304.53;4938033;28;20252;-57
2024/03/23 06:33:58;;;;;;;32.93;19.93;;;;;;;9.11;100.00;99300.28;4933171;29;20241;-58
2024/03/23 06:36:24;;;;;;;30.63;19.93;;;;;;;9.13;100.00;99299.41;4935045;28;20209;-58
2024/03/23 06:38:51;;;;;;;29.17;19.73;;;;;;;9.15;100.00;99302.78;4933334;29;20213;-64
2024/03/23 06:41:22;;;;;;;30.90;19.60;;;;;;;9.19;100.00;99306.16;4936018;28;20673;-64
2024/03/23 06:43:48;;;;;;;28.50;19.50;;;;;;;9.16;100.00;99301.06;4913841;28;20318;-66
2024/03/23 06:46:15;;;;;;;29.80;19.53;;;;;;;9.12;100.00;99289.13;4933818;29;20728;-62
2024/03/23 06:48:41;;;;;;;26.73;18.40;;;;;;;9.16;100.00;99294.19;4927734;29;20587;-66
2024/03/23 06:51:09;;;;;;;31.00;19.13;;;;;;;9.18;100.00;99289.88;4937258;29;20220;-71
2024/03/23 06:53:34;;;;;;;30.70;19.80;;;;;;;9.21;100.00;99280.44;4937395;28;20240;-60
2024/03/23 06:56:01;;;;;;;26.93;18.40;;;;;;;9.21;100.00;99272.72;4934485;29;20667;-62
2024/03/23 06:58:29;;;;;;;28.77;18.77;;;;;;;9.23;100.00;99273.53;4935296;28;20209;-60
2024/03/23 07:00:56;;;;;;;28.80;19.27;;;;;;;9.25;100.00;99276.94;4932424;28;20216;-58
2024/03/23 07:03:22;;;;;;;30.30;20.00;;;;;;;9.27;100.00;99281.13;4931932;29;20213;-57
2024/03/23 07:05:49;;;;;;;28.00;18.87;;;;;;;9.28;100.00;99277.72;4928906;28;20673;-60
2024/03/23 07:08:21;;;;;;;27.43;18.07;;;;;;;9.31;100.00;99271.66;4933381;29;20261;-60
2024/03/23 07:10:48;;;;;;;29.53;19.00;;;;;;;9.30;100.00;99275.09;4935388;28;20575;-61
2024/03/23 07:13:14;;;;;;;29.93;18.53;;;;;;;9.27;100.00;99270.00;4934136;29;20242;-60
2024/03/23 07:15:42;;;;;;;29.37;20.33;;;;;;;9.27;100.00;99277.72;4935307;28;20218;-62
2024/03/23 07:18:08;;;;;;;31.40;19.53;;;;;;;9.27;100.00;99275.16;4935471;28;20237;-60
2024/03/23 07:20:35;;;;;;;33.97;20.37;;;;;;;9.26;100.00;99274.31;4935528;29;20218;-57
2024/03/23 07:23:01;;;;;;;31.03;19.43;;;;;;;9.27;100.00;99265.72;4933038;28;20206;-62
2024/03/23 07:25:29;;;;;;;33.00;19.60;;;;;;;9.26;100.00;99268.34;4929824;28;20228;-59
2024/03/23 07:27:55;;;;;;;30.07;19.77;;;;;;;9.25;100.00;99264.06;4935354;28;20691;-57
2024/03/23 07:30:21;;;;;;;31.37;19.27;;;;;;;9.25;100.00;99264.06;4937942;28;20210;-57
2024/03/23 07:32:49;;;;;;;28.23;18.83;;;;;;;9.24;100.00;99254.66;4934378;29;20233;-58
2024/03/23 07:35:16;;;;;;;26.27;18.43;;;;;;;9.22;100.00;99257.25;4935642;29;20217;-57
2024/03/23 07:37:42;;;;;;;28.33;18.77;;;;;;;9.22;100.00;99264.13;4930378;28;20222;-68
2024/03/23 07:40:11;;;;;;;27.73;17.00;;;;;;;9.19;100.00;99257.31;4929268;28;20218;-61
2024/03/23 07:42:37;;;;;;;27.53;18.17;;;;;;;9.19;100.00;99258.16;4929347;29;20224;-65
2024/03/23 07:45:05;;;;;;;26.27;17.33;;;;;;;9.17;100.00;99256.50;4936601;29;20217;-61
2024/03/23 07:47:31;;;;;;;29.60;19.73;;;;;;;9.15;100.00;99251.38;4933957;29;20213;-60
2024/03/23 07:49:59;;;;;;;28.07;17.40;;;;;;;9.15;100.00;99242.81;4931578;29;20669;-62
2024/03/23 07:52:28;;;;;;;29.93;18.67;;;;;;;9.12;100.00;99230.88;4936837;29;20241;-60
2024/03/23 07:54:55;;;;;;;30.43;17.20;;;;;;;9.12;100.00;99236.00;4932688;29;20272;-61
2024/03/23 07:57:21;;;;;;;26.80;16.70;;;;;;;9.13;100.00;99237.72;4936752;29;20214;-63
2024/03/23 07:59:48;;;;;;;23.03;16.17;;;;;;;9.13;100.00;99227.44;4937372;29;20225;-62
2024/03/23 08:02:14;;;;;;;29.27;17.63;;;;;;;9.17;100.00;99221.38;4938175;29;20589;-61
2024/03/23 08:04:41;;;;;;;31.33;17.07;;;;;;;9.24;100.00;99218.66;4937643;29;20213;-61
2024/03/23 08:07:08;;;;;;;29.13;17.27;;;;;;;9.33;100.00;99209.06;4934957;28;20213;-62
2024/03/23 08:09:35;;;;;;;24.87;16.40;;;;;;;9.39;100.00;99211.50;4932497;29;20217;-60
2024/03/23 08:12:02;;;;;;;27.97;16.40;;;;;;;9.45;100.00;99205.38;4932249;29;20221;-59
2024/03/23 08:14:29;;;;;;;25.67;16.10;;;;;;;9.53;100.00;99206.06;4937187;28;20619;-60
2024/03/23 08:16:55;;;;;;;25.50;16.90;;;;;;;9.56;100.00;99208.56;4942837;28;20224;-64
2024/03/23 08:19:22;;;;;;;22.67;16.23;;;;;;;9.58;100.00;99203.41;4942839;28;20782;-61
2024/03/23 08:21:50;;;;;;;25.80;15.47;;;;;;;9.58;100.00;99196.53;4937580;29;20213;-61
2024/03/23 08:24:19;;;;;;;24.87;15.63;;;;;;;9.63;100.00;99207.56;4937610;29;20719;-58
2024/03/23 08:26:45;;;;;;;22.97;16.87;;;;;;;9.58;100.00;99182.84;4929830;28;20206;-59
2024/03/23 08:29:12;;;;;;;27.57;16.10;;;;;;;9.57;100.00;99194.88;4931812;29;20213;-60
2024/03/23 08:31:38;;;;;;;23.53;16.07;;;;;;;9.57;100.00;99189.72;4934504;29;21851;-60
2024/03/23 08:34:05;;;;;;;25.07;16.10;;;;;;;9.62;100.00;99187.03;4937076;28;20232;-60
2024/03/23 08:36:32;;;;;;;25.33;17.30;;;;;;;9.67;100.00;99180.06;4936332;29;20276;-60
2024/03/23 08:38:58;;;;;;;25.23;16.77;;;;;;;9.76;100.00;99168.75;4937292;29;20209;-60
2024/03/23 08:41:26;;;;;;;21.83;15.37;;;;;;;9.85;100.00;99163.38;4936938;29;20358;-60
2024/03/23 08:43:54;;;;;;;22.50;16.20;;;;;;;9.92;100.00;99150.34;4921835;29;20210;-58
2024/03/23 08:46:21;;;;;;;27.90;16.73;;;;;;;10.25;100.00;99154.72;4936881;29;20217;-58
2024/03/23 08:48:48;;;;;;;25.70;17.20;;;;;;;10.57;100.00;99141.91;4935904;29;20573;-59
2024/03/23 08:51:17;;;;;;;21.93;14.50;;;;;;;10.90;100.00;99134.16;4934701;29;20609;-61
2024/03/23 08:53:44;;;;;;;22.53;14.93;;;;;;;11.39;100.00;99125.03;4935907;29;20345;-59
2024/03/23 08:56:11;;;;;;;19.83;14.33;;;;;;;11.96;99.02;99120.72;4940931;28;20204;-58
2024/03/23 08:58:39;;;;;;;17.87;12.87;;;;;;;12.37;94.60;99123.69;4941540;29;20557;-61
2024/03/23 09:01:09;;;;;;;17.67;12.13;;;;;;;12.52;90.91;99124.03;4942619;29;20213;-59
2024/03/23 09:03:35;;;;;;;18.07;13.07;;;;;;;12.65;89.13;99116.69;4933420;29;20205;-58
2024/03/23 09:06:03;;;;;;;18.10;12.33;;;;;;;12.73;87.67;99108.66;4937511;28;20216;-59
2024/03/23 09:08:30;;;;;;;16.27;12.53;;;;;;;12.67;87.40;99112.31;4924390;29;20273;-58
2024/03/23 09:10:57;;;;;;;17.07;12.33;;;;;;;12.58;86.65;99108.28;4931300;29;20205;-68
2024/03/23 09:13:23;;;;;;;16.77;11.80;;;;;;;12.54;86.34;99098.13;4936951;29;20284;-61
2024/03/23 09:15:57;;;;;;;16.77;11.77;;;;;;;12.44;84.76;99100.16;4937056;29;20224;-62
2024/03/23 09:18:26;;;;;;;16.17;11.07;;;;;;;12.32;85.64;99080.75;4945279;29;20720;-63
2024/03/23 09:20:54;;;;;;;15.63;11.40;;;;;;;12.39;87.25;99080.56;4930098;29;20212;-57
2024/03/23 09:23:21;;;;;;;16.87;11.80;;;;;;;12.61;87.17;99081.50;4940057;29;20213;-59
2024/03/23 09:25:48;;;;;;;16.13;11.50;;;;;;;12.94;85.42;99070.84;4938883;28;20213;-58
2024/03/23 09:28:14;;;;;;;14.73;10.30;;;;;;;13.06;82.42;99060.88;4933907;29;20974;-58
2024/03/23 09:30:43;;;;;;;15.13;10.63;;;;;;;13.06;82.19;99063.47;4936029;29;20321;-60
2024/03/23 09:33:10;;;;;;;14.33;10.27;;;;;;;13.03;81.94;99066.19;4934357;29;20248;-60
2024/03/23 09:35:38;;;;;;;15.03;10.20;;;;;;;12.96;81.20;99067.31;4933580;29;20217;-59
2024/03/23 09:38:04;;;;;;;15.03;11.27;;;;;;;12.90;81.69;99058.94;4933450;29;20262;-60
2024/03/23 09:40:32;;;;;;;13.40;9.80;;;;;;;12.63;80.73;99059.03;4936117;29;20311;-60
2024/03/23 09:42:58;;;;;;;15.50;10.77;;;;;;;12.36;82.19;99058.25;4931766;29;20205;-58
2024/03/23 09:45:28;;;;;;;16.30;10.00;;;;;;;12.17;83.57;99058.03;4932732;29;20692;-61
2024/03/23 09:47:56;;;;;;;15.10;10.30;;;;;;;12.06;84.40;99053.25;4934030;29;20672;-59
2024/03/23 09:50:24;;;;;;;15.70;10.30;;;;;;;12.00;84.57;99048.31;4935344;29;20220;-62
2024/03/23 09:52:50;;;;;;;16.47;10.90;;;;;;;11.99;84.81;99046.59;4933570;29;20221;-60
2024/03/23 09:55:17;;;;;;;13.40;9.73;;;;;;;12.00;85.32;99035.41;4936057;29;20209;-63
2024/03/23 09:57:43;;;;;;;14.50;9.77;;;;;;;12.12;84.66;99031.53;4935914;29;20221;-61
2024/03/23 10:00:12;;;;;;;14.10;9.37;;;;;;;12.20;84.66;99023.53;4932437;29;20406;-63
2024/03/23 10:02:38;;;;;;;13.80;8.93;;;;;;;12.33;84.71;99019.59;4930363;29;20731;-63
2024/03/23 10:05:21;;;;;;;12.70;9.67;;;;;;;12.53;84.43;99012.00;4936154;29;20301;-61
2024/03/23 10:07:50;;;;;;;13.33;9.47;;;;;;;12.95;84.76;99003.56;4933651;28;20213;-63
2024/03/23 10:10:16;;;;;;;12.70;9.60;;;;;;;13.23;82.78;98989.56;4935760;29;20209;-64
2024/03/23 10:12:47;;;;;;;14.93;9.93;;;;;;;13.34;80.74;98969.31;4931087;29;20213;-62
2024/03/23 10:15:19;;;;;;;13.17;9.50;;;;;;;13.57;80.20;98972.72;4932098;29;20209;-62
2024/03/23 10:17:46;;;;;;;12.47;9.10;;;;;;;13.91;80.64;98960.03;4931890;29;20308;-62
2024/03/23 10:20:12;;;;;;;13.17;9.50;;;;;;;14.26;79.32;98945.56;4935449;29;20212;-64
2024/03/23 10:22:39;;;;;;;14.67;9.80;;;;;;;14.55;74.74;98937.44;4942140;28;20220;-62
2024/03/23 10:25:11;;;;;;;11.95;8.25;;;;;;;14.79;73.45;98932.88;4940999;28;20684;-63
2024/03/23 10:27:38;;;;;;;12.47;8.43;;;;;;;14.91;70.37;98929.69;4944987;29;20276;-61
2024/03/23 10:30:09;;;;;;;11.57;8.93;;;;;;;15.04;69.66;98919.59;4928927;29;21059;-61
2024/03/23 10:32:36;;;;;;;12.32;8.60;;;;;;;15.14;67.09;98918.25;4935964;29;20287;-61
2024/03/23 10:35:15;;;;;;;11.18;7.93;;;;;;;15.19;67.28;98906.72;4935284;29;20237;-61
2024/03/23 10:37:43;;;;;;;12.18;9.07;;;;;;;15.23;67.17;98902.22;4936565;28;20277;-62
2024/03/23 10:40:12;;;;;;;11.15;8.43;;;;;;;15.11;67.33;98903.66;4933331;29;20213;-62
2024/03/23 10:42:40;;;;;;;11.38;8.48;;;;;;;15.19;66.86;98906.72;4935563;29;20619;-59
2024/03/23 10:45:07;;;;;;;11.80;8.52;;;;;;;15.22;67.73;98900.53;4935712;29;20261;-60
2024/03/23 10:47:35;;;;;;;11.52;8.57;;;;;;;15.45;66.96;98884.66;4940358;29;20217;-61
2024/03/23 10:50:05;;;;;;;12.35;8.82;;;;;;;15.64;66.88;98887.16;4929439;29;20214;-63
2024/03/23 10:52:32;;;;;;;10.38;8.45;;;;;;;15.80;64.29;98886.44;4941184;28;20626;-62
2024/03/23 10:55:01;;;;;;;11.82;8.73;;;;;;;15.78;64.07;98878.72;4935820;29;20237;-61
2024/03/23 10:57:35;;;;;;;12.27;7.82;;;;;;;15.62;64.04;98876.03;4935892;29;20592;-63
2024/03/23 11:00:03;;;;;;;10.90;7.32;;;;;;;15.69;64.95;98861.00;4935073;29;20217;-66
2024/03/23 11:02:30;;;;;;;11.60;8.27;;;;;;;15.83;64.64;98842.09;4935856;28;20565;-65
2024/03/23 11:04:56;;;;;;;9.02;7.30;;;;;;;16.01;64.46;98846.31;4935155;29;20213;-60
2024/03/23 11:07:31;;;;;;;12.38;7.60;;;;;;;16.19;63.13;98841.91;4927677;29;20662;-61
2024/03/23 11:09:57;;;;;;;14.38;7.82;;;;;;;16.16;62.84;98842.94;4930274;29;20231;-61
2024/03/23 11:12:32;;;;;;;9.05;7.25;;;;;;;16.29;61.79;98837.91;4928403;29;20201;-60
2024/03/23 11:15:00;;;;;;;12.15;6.97;;;;;;;16.34;61.46;98841.06;4932742;28;20601;-63
2024/03/23 11:17:28;;;;;;;10.43;6.65;;;;;;;16.45;61.48;98850.06;4931947;28;20228;-65
2024/03/23 11:19:57;;;;;;;9.52;6.88;;;;;;;16.66;61.77;98835.88;4939379;29;20217;-61